Time;durP1;ratioP1;P1;durP2;ratioP2;P2;SDS_P1;SDS_P2;PMS_P1;PMS_P2;Temp;Humidity;BMP_temperature;BMP_pressure;BME280_temperature;BME280_humidity;BME280_pressure;Samples;Min_cycle;Max_cycle;Signal;HPM_P1;HPM_P2
2021/07/08 00:00:53;;;;;;;3.80;2.88;;;;;;;16.61;67.57;101127.59;5044043;28;20049;-53
2021/07/08 00:03:20;;;;;;;3.90;2.80;;;;;;;16.63;67.43;101132.81;5027640;28;20791;-47
2021/07/08 00:05:50;;;;;;;3.05;2.75;;;;;;;16.57;67.87;101134.34;5007630;28;20064;-48
2021/07/08 00:08:16;;;;;;;2.83;2.50;;;;;;;16.55;67.97;101140.28;5016063;28;20247;-53
2021/07/08 00:10:51;;;;;;;3.58;2.85;;;;;;;16.51;68.19;101135.81;5021639;28;20053;-53
2021/07/08 00:13:20;;;;;;;5.50;3.53;;;;;;;16.52;68.21;101135.41;5025589;28;20071;-47
2021/07/08 00:15:47;;;;;;;4.63;2.80;;;;;;;16.43;68.49;101138.50;5016895;28;20057;-48
2021/07/08 00:18:14;;;;;;;4.85;3.17;;;;;;;16.52;68.54;101143.00;5004270;28;20052;-50
2021/07/08 00:20:47;;;;;;;4.30;3.10;;;;;;;16.55;68.45;101136.72;5008044;28;20192;-46
2021/07/08 00:23:16;;;;;;;5.28;3.20;;;;;;;16.54;68.71;101140.69;5005570;28;20107;-54
2021/07/08 00:25:44;;;;;;;5.13;3.50;;;;;;;16.40;68.95;101136.44;5006786;28;20774;-45
2021/07/08 00:28:15;;;;;;;5.43;3.65;;;;;;;16.44;69.07;101133.72;5002739;28;20940;-50
2021/07/08 00:30:44;;;;;;;5.65;3.78;;;;;;;16.48;69.19;101136.53;5008261;28;20046;-49
2021/07/08 00:33:12;;;;;;;6.43;2.80;;;;;;;16.53;69.31;101141.84;5008493;28;20128;-45
2021/07/08 00:35:40;;;;;;;5.68;3.35;;;;;;;16.57;69.38;101151.09;5003532;28;20057;-46
2021/07/08 00:38:06;;;;;;;5.55;3.20;;;;;;;16.63;69.38;101135.59;5008154;28;20059;-46
2021/07/08 00:40:34;;;;;;;5.15;3.10;;;;;;;16.66;69.15;101137.66;5008139;28;20136;-56
2021/07/08 00:43:04;;;;;;;6.40;4.60;;;;;;;16.68;69.46;101147.28;5005862;28;20405;-49
2021/07/08 00:45:33;;;;;;;5.55;3.58;;;;;;;16.68;69.63;101132.50;5008525;28;20344;-53
2021/07/08 00:48:00;;;;;;;7.95;3.15;;;;;;;16.68;69.68;101140.91;4986507;28;20052;-45
2021/07/08 00:50:34;;;;;;;4.43;3.53;;;;;;;16.71;69.92;101140.13;5005161;28;20104;-44
2021/07/08 00:53:01;;;;;;;5.75;3.75;;;;;;;16.74;69.84;101137.38;5007090;28;20059;-50
2021/07/08 00:55:28;;;;;;;7.25;3.95;;;;;;;16.78;69.76;101151.44;4990972;28;20053;-45
2021/07/08 00:57:55;;;;;;;5.80;3.08;;;;;;;16.81;69.77;101147.88;5003586;28;20055;-45
2021/07/08 01:00:26;;;;;;;5.85;2.83;;;;;;;16.80;69.85;101155.47;5001391;28;21298;-50
2021/07/08 01:02:54;;;;;;;5.68;2.97;;;;;;;16.83;69.78;101151.91;4999220;28;20061;-48
2021/07/08 01:05:26;;;;;;;6.57;3.15;;;;;;;16.79;70.32;101147.44;5000067;28;20834;-53
2021/07/08 01:07:54;;;;;;;;;;;;;;;16.69;70.34;101154.50;4997136;28;20449;-49
2021/07/08 01:10:23;;;;;;;7.47;4.07;;;;;;;16.74;69.81;101144.97;5002493;28;19932;-48
2021/07/08 01:12:50;;;;;;;3.88;2.95;;;;;;;16.76;69.90;101145.41;5005920;28;20045;-44
2021/07/08 01:15:18;;;;;;;6.05;3.47;;;;;;;16.75;70.04;101146.59;4998229;28;20057;-52
2021/07/08 01:17:45;;;;;;;6.35;3.13;;;;;;;16.75;70.07;101147.41;5014116;28;20056;-55
2021/07/08 01:20:15;;;;;;;4.55;3.00;;;;;;;16.74;70.22;101144.97;5034626;28;20692;-45
2021/07/08 01:22:41;;;;;;;7.78;3.72;;;;;;;16.77;70.19;101155.41;5018215;28;20044;-45
2021/07/08 01:25:10;;;;;;;5.30;2.67;;;;;;;16.78;70.11;101154.22;5039152;28;20056;-51
2021/07/08 01:27:38;;;;;;;3.95;2.65;;;;;;;16.72;70.33;101153.75;5034491;28;20048;-55
2021/07/08 01:30:10;;;;;;;5.97;3.20;;;;;;;16.70;70.28;101155.31;5031914;28;20358;-51
2021/07/08 01:32:37;;;;;;;;;;;;;;;16.60;70.94;101164.34;5029134;28;20045;-46
2021/07/08 01:35:08;;;;;;;5.07;2.90;;;;;;;16.61;70.62;101163.94;5024038;28;20094;-45
2021/07/08 01:37:35;;;;;;;7.57;3.08;;;;;;;16.58;70.62;101166.69;5024866;28;20045;-45
2021/07/08 01:40:05;;;;;;;4.47;3.15;;;;;;;16.60;70.55;101162.31;4990443;28;20065;-47
2021/07/08 01:42:37;;;;;;;5.63;2.78;;;;;;;16.58;70.62;101163.88;5022978;28;20581;-56
2021/07/08 01:45:06;;;;;;;6.57;2.80;;;;;;;16.56;70.82;101163.47;5004487;28;20044;-49
2021/07/08 01:47:33;;;;;;;5.63;2.83;;;;;;;16.45;71.15;101161.28;5028199;28;20130;-46
2021/07/08 01:50:00;;;;;;;8.93;4.28;;;;;;;16.40;71.42;101169.97;5028388;28;20452;-47
2021/07/08 01:52:27;;;;;;;5.82;2.78;;;;;;;16.34;71.51;101176.25;5027483;28;20049;-49
2021/07/08 01:54:54;;;;;;;6.13;3.05;;;;;;;16.33;71.63;101171.84;5027027;28;20319;-49
2021/07/08 01:57:20;;;;;;;6.05;3.17;;;;;;;16.29;71.74;101174.56;5007458;28;20195;-44
2021/07/08 01:59:47;;;;;;;6.75;3.50;;;;;;;16.24;71.89;101177.69;5022395;28;20574;-46
2021/07/08 02:02:14;;;;;;;6.43;3.20;;;;;;;16.23;71.95;101176.06;5026868;28;20072;-45
2021/07/08 02:04:41;;;;;;;7.13;3.83;;;;;;;16.26;71.89;101172.53;5024398;28;20890;-47
2021/07/08 02:07:08;;;;;;;6.28;2.70;;;;;;;16.28;71.84;101178.53;5030412;28;20057;-52
2021/07/08 02:09:35;;;;;;;5.47;2.90;;;;;;;16.27;72.07;101170.53;5026775;28;20081;-50
2021/07/08 02:12:02;;;;;;;5.20;2.35;;;;;;;16.31;71.84;101169.41;5024243;28;20052;-53
2021/07/08 02:14:29;;;;;;;6.20;3.25;;;;;;;16.26;72.04;101168.91;5023918;28;20059;-43
2021/07/08 02:16:56;;;;;;;10.40;2.80;;;;;;;16.24;72.14;101165.69;5019870;28;20127;-54
2021/07/08 02:19:23;;;;;;;5.05;2.55;;;;;;;16.24;72.23;101166.50;5022877;28;20053;-49
2021/07/08 02:21:50;;;;;;;5.82;2.88;;;;;;;16.20;72.44;101168.41;5022615;28;20053;-52
2021/07/08 02:24:17;;;;;;;4.90;2.72;;;;;;;16.19;72.62;101160.44;5021509;28;21830;-45
2021/07/08 02:26:44;;;;;;;6.68;2.55;;;;;;;16.17;72.65;101166.41;5023153;28;20064;-47
2021/07/08 02:29:13;;;;;;;5.03;2.45;;;;;;;16.16;72.71;101166.75;5008627;28;20187;-43
2021/07/08 02:31:43;;;;;;;5.95;3.08;;;;;;;16.21;72.57;101167.25;5030347;28;20053;-47
2021/07/08 02:34:10;;;;;;;6.00;2.80;;;;;;;16.21;72.34;101164.47;5034746;28;20132;-45
2021/07/08 02:36:37;;;;;;;5.78;3.08;;;;;;;16.22;72.55;101173.66;5023599;28;20572;-47
2021/07/08 02:39:05;;;;;;;6.30;2.45;;;;;;;16.22;72.64;101176.44;5029372;28;20061;-48
2021/07/08 02:41:32;;;;;;;6.25;3.30;;;;;;;16.22;72.57;101168.06;5026388;28;20037;-49
2021/07/08 02:43:59;;;;;;;5.13;2.97;;;;;;;16.23;72.36;101170.47;5026988;28;20053;-46
2021/07/08 02:46:26;;;;;;;5.45;2.92;;;;;;;16.19;72.72;101177.19;5029195;28;20059;-52
2021/07/08 02:48:52;;;;;;;6.50;2.92;;;;;;;16.16;72.75;101178.75;5030160;28;20048;-49
2021/07/08 02:51:19;;;;;;;5.82;3.40;;;;;;;16.17;72.62;101177.56;5030127;28;20061;-54
2021/07/08 02:53:46;;;;;;;4.90;2.65;;;;;;;16.13;72.68;101178.66;5026238;28;20045;-48
2021/07/08 02:56:13;;;;;;;7.50;3.10;;;;;;;16.15;72.69;101171.53;5028855;28;20420;-47
2021/07/08 02:58:40;;;;;;;8.77;3.90;;;;;;;16.11;72.98;101170.69;5031216;28;20060;-54
2021/07/08 03:01:07;;;;;;;8.13;4.00;;;;;;;16.07;73.03;101172.59;5027359;28;20842;-46
2021/07/08 03:03:33;;;;;;;5.82;3.00;;;;;;;16.00;73.38;101186.44;5025528;28;20060;-51
2021/07/08 03:06:01;;;;;;;7.43;2.92;;;;;;;15.96;73.50;101179.16;5026563;28;20041;-51
2021/07/08 03:08:28;;;;;;;5.93;2.85;;;;;;;15.97;73.69;101180.75;5027685;28;20195;-50
2021/07/08 03:10:55;;;;;;;5.43;3.22;;;;;;;15.95;73.55;101180.34;5013208;28;20065;-51
2021/07/08 03:13:21;;;;;;;6.72;3.33;;;;;;;15.95;73.57;101172.78;5027488;28;20053;-54
2021/07/08 03:15:48;;;;;;;8.77;3.47;;;;;;;15.97;73.49;101173.19;5031675;28;20045;-52
2021/07/08 03:18:15;;;;;;;7.53;4.07;;;;;;;15.92;73.74;101181.88;5025386;28;20408;-44
2021/07/08 03:20:45;;;;;;;9.85;4.35;;;;;;;15.90;73.87;101178.66;5028690;28;20049;-45
2021/07/08 03:23:12;;;;;;;7.38;3.28;;;;;;;15.95;73.79;101174.75;5028366;28;20665;-52
2021/07/08 03:25:40;;;;;;;7.55;3.20;;;;;;;15.96;73.82;101181.97;5037377;28;20132;-46
2021/07/08 03:28:07;;;;;;;5.65;3.58;;;;;;;15.98;73.74;101179.59;5044218;28;20088;-56
2021/07/08 03:30:34;;;;;;;8.18;3.53;;;;;;;15.97;73.76;101183.56;5045078;28;20053;-45
2021/07/08 03:33:02;;;;;;;10.60;4.60;;;;;;;15.94;73.83;101185.09;5040997;28;20094;-56
2021/07/08 03:35:31;;;;;;;8.10;3.47;;;;;;;15.95;74.04;101192.31;5040657;28;20417;-45
2021/07/08 03:37:59;;;;;;;9.02;4.10;;;;;;;15.99;73.86;101187.59;5040989;28;20052;-45
2021/07/08 03:40:27;;;;;;;9.70;4.75;;;;;;;15.95;74.00;101188.72;5041114;28;20056;-46
2021/07/08 03:42:55;;;;;;;9.13;3.97;;;;;;;15.96;74.01;101196.75;5040042;28;20139;-45
2021/07/08 03:45:25;;;;;;;9.43;5.38;;;;;;;16.02;73.86;101186.84;5043667;28;20136;-51
2021/07/08 03:47:54;;;;;;;10.00;3.85;;;;;;;15.98;73.86;101191.59;5040948;28;20083;-52
2021/07/08 03:50:21;;;;;;;10.60;4.85;;;;;;;15.93;73.92;101194.69;5041748;28;20065;-44
2021/07/08 03:52:48;;;;;;;6.95;3.85;;;;;;;15.96;74.02;101196.75;5039374;28;20056;-49
2021/07/08 03:55:19;;;;;;;7.72;3.45;;;;;;;15.97;74.16;101195.53;5035625;28;20041;-50
2021/07/08 03:57:52;;;;;;;7.72;4.53;;;;;;;16.03;73.83;101194.06;5037644;28;20072;-57
2021/07/08 04:00:32;;;;;;;10.30;4.28;;;;;;;16.01;74.21;101198.41;5039910;28;20048;-53
2021/07/08 04:03:11;;;;;;;9.57;4.28;;;;;;;16.01;73.87;101196.44;5037038;28;20056;-55
2021/07/08 04:05:38;;;;;;;8.27;3.97;;;;;;;15.94;74.20;101207.44;5040977;28;20187;-55
2021/07/08 04:08:07;;;;;;;7.45;4.00;;;;;;;15.92;74.38;101195.03;5038318;28;20114;-55
2021/07/08 04:10:37;;;;;;;10.60;4.35;;;;;;;15.92;74.25;101195.84;5036989;28;20529;-49
2021/07/08 04:13:05;;;;;;;6.95;4.22;;;;;;;15.94;74.30;101210.25;5037241;28;20057;-53
2021/07/08 04:15:33;;;;;;;6.43;3.50;;;;;;;15.94;74.30;101201.88;5035036;28;20075;-54
2021/07/08 04:18:01;;;;;;;7.20;3.85;;;;;;;15.95;74.45;101209.06;5034480;28;20059;-43
2021/07/08 04:20:29;;;;;;;7.93;4.15;;;;;;;15.98;74.53;101208.34;5036140;28;20048;-50
2021/07/08 04:22:56;;;;;;;10.18;4.60;;;;;;;15.98;74.35;101211.13;5039831;28;20064;-45
2021/07/08 04:25:25;;;;;;;8.45;3.65;;;;;;;15.99;74.41;101215.53;5037222;28;20053;-48
2021/07/08 04:27:52;;;;;;;7.75;3.70;;;;;;;15.99;74.40;101209.94;5036762;28;20048;-48
2021/07/08 04:30:21;;;;;;;10.68;4.47;;;;;;;15.96;74.62;101212.69;5037256;28;20130;-46
2021/07/08 04:32:50;;;;;;;9.50;5.18;;;;;;;15.97;74.74;101223.47;5036112;28;20045;-54
2021/07/08 04:35:53;;;;;;;7.27;3.50;;;;;;;15.98;74.56;101225.09;5038681;28;20049;-54
2021/07/08 04:38:13;;;;;;;8.90;3.90;;;;;;;15.98;74.65;101230.69;5033678;28;20045;-44
2021/07/08 04:40:42;;;;;;;10.07;4.18;;;;;;;15.98;74.83;101224.28;5042054;28;20052;-45
2021/07/08 04:43:11;;;;;;;15.63;4.60;;;;;;;15.97;74.72;101228.25;5036915;28;20374;-52
2021/07/08 04:45:39;;;;;;;9.80;4.65;;;;;;;15.98;74.52;101227.88;5026882;28;20835;-46
2021/07/08 04:48:08;;;;;;;9.07;3.90;;;;;;;15.98;74.83;101227.06;5027341;28;20067;-48
2021/07/08 04:50:36;;;;;;;8.07;3.88;;;;;;;15.97;74.72;101228.25;5037504;28;20786;-45
2021/07/08 04:53:02;;;;;;;8.77;3.53;;;;;;;15.99;74.95;101237.09;5036131;28;20420;-45
2021/07/08 04:55:30;;;;;;;7.18;3.55;;;;;;;16.02;74.70;101225.97;5039629;28;20049;-45
2021/07/08 04:57:57;;;;;;;8.30;4.90;;;;;;;16.03;74.80;101229.56;5037319;28;20187;-46
2021/07/08 05:00:25;;;;;;;7.72;3.33;;;;;;;16.01;74.56;101235.53;5038583;28;20052;-45
2021/07/08 05:02:53;;;;;;;7.25;3.90;;;;;;;16.03;74.87;101241.56;5037203;28;20052;-45
2021/07/08 05:05:21;;;;;;;7.25;4.15;;;;;;;16.04;74.68;101245.97;5037147;28;20120;-48
2021/07/08 05:07:50;;;;;;;7.75;4.05;;;;;;;16.04;74.60;101240.38;5040721;28;20056;-45
2021/07/08 05:10:18;;;;;;;9.48;4.88;;;;;;;16.03;74.75;101249.94;5020731;28;20049;-54
2021/07/08 05:12:46;;;;;;;10.32;4.07;;;;;;;16.05;74.82;101246.75;5026085;28;20132;-44
2021/07/08 05:15:15;;;;;;;8.30;3.58;;;;;;;16.01;74.87;101257.88;5024975;28;20517;-53
2021/07/08 05:17:46;;;;;;;11.98;4.88;;;;;;;16.05;74.79;101258.75;5024919;28;20726;-56
2021/07/08 05:20:14;;;;;;;7.17;3.93;;;;;;;16.01;74.81;101263.47;5024697;28;20504;-49
2021/07/08 05:22:44;;;;;;;9.18;4.00;;;;;;;15.97;75.00;101262.56;5024557;28;20053;-47
2021/07/08 05:25:15;;;;;;;9.70;4.93;;;;;;;15.94;75.15;101262.53;5013198;28;20140;-46
2021/07/08 05:27:43;;;;;;;6.18;3.47;;;;;;;15.89;75.22;101258.03;5017361;28;20124;-50
2021/07/08 05:30:11;;;;;;;7.72;4.05;;;;;;;15.92;75.12;101262.06;5016399;28;20060;-45
2021/07/08 05:32:37;;;;;;;6.95;3.97;;;;;;;15.92;75.21;101271.25;5012534;28;20578;-46
2021/07/08 05:35:06;;;;;;;9.25;4.43;;;;;;;15.96;75.23;101269.34;5020152;28;20806;-46
2021/07/08 05:37:32;;;;;;;6.90;3.90;;;;;;;15.97;75.01;101276.53;5021993;28;20315;-46
2021/07/08 05:39:59;;;;;;;8.38;4.80;;;;;;;15.97;75.14;101278.50;5012393;28;20067;-51
2021/07/08 05:42:26;;;;;;;8.70;5.47;;;;;;;16.05;75.19;101280.28;5014646;28;20506;-46
2021/07/08 05:44:54;;;;;;;11.48;5.45;;;;;;;16.12;74.91;101284.03;5017584;28;20319;-48
2021/07/08 05:47:21;;;;;;;11.82;4.50;;;;;;;16.09;74.88;101289.53;5014160;28;20104;-50
2021/07/08 05:49:55;;;;;;;9.90;4.30;;;;;;;16.12;74.88;101283.22;5014798;28;20085;-46
2021/07/08 05:52:24;;;;;;;12.82;6.13;;;;;;;16.12;75.13;101281.25;5014159;28;20501;-49
2021/07/08 05:54:50;;;;;;;8.85;5.07;;;;;;;16.09;74.96;101293.16;5016019;28;20136;-47
2021/07/08 05:57:17;;;;;;;10.60;5.53;;;;;;;16.02;75.20;101287.41;5014737;28;20613;-53
2021/07/08 05:59:44;;;;;;;11.05;5.32;;;;;;;15.95;75.39;101292.84;5018858;28;20064;-44
2021/07/08 06:02:11;;;;;;;12.13;5.45;;;;;;;16.04;75.40;101293.44;5018283;28;20131;-46
2021/07/08 06:04:38;;;;;;;11.10;5.10;;;;;;;16.09;75.17;101298.75;5015980;28;20187;-56
2021/07/08 06:07:05;;;;;;;10.00;5.15;;;;;;;16.14;75.31;101295.63;5016484;28;20160;-50
2021/07/08 06:09:32;;;;;;;11.45;5.20;;;;;;;16.19;75.07;101291.72;5031146;28;20053;-44
2021/07/08 06:11:59;;;;;;;15.13;6.40;;;;;;;16.20;75.11;101298.94;5033968;28;20494;-45
2021/07/08 06:14:26;;;;;;;12.20;5.30;;;;;;;16.25;75.08;101301.44;5017828;28;20489;-46
2021/07/08 06:16:52;;;;;;;8.00;5.60;;;;;;;16.32;74.94;101302.38;5038220;28;20773;-51
2021/07/08 06:19:19;;;;;;;11.15;4.78;;;;;;;16.38;74.78;101306.50;5040495;28;20581;-46
2021/07/08 06:21:50;;;;;;;12.00;5.07;;;;;;;16.36;74.59;101314.41;5038494;28;20143;-53
2021/07/08 06:24:17;;;;;;;9.68;4.10;;;;;;;16.35;74.77;101317.59;5034011;28;20225;-50
2021/07/08 06:26:45;;;;;;;12.32;6.03;;;;;;;16.36;74.83;101316.41;5033256;28;20737;-50
2021/07/08 06:29:11;;;;;;;10.55;5.28;;;;;;;16.33;74.79;101320.78;5041279;28;20425;-49
2021/07/08 06:31:38;;;;;;;9.35;4.57;;;;;;;16.28;74.80;101321.03;5015974;28;20067;-54
2021/07/08 06:34:08;;;;;;;11.00;5.35;;;;;;;16.27;74.83;101327.81;5039366;28;20058;-56
2021/07/08 06:36:36;;;;;;;12.75;5.32;;;;;;;16.30;74.62;101329.88;5034852;28;20104;-50
2021/07/08 06:39:04;;;;;;;6.60;3.78;;;;;;;16.27;74.60;101327.00;5035127;28;20049;-55
2021/07/08 06:41:32;;;;;;;7.93;3.97;;;;;;;16.31;74.71;101334.28;5034218;28;20413;-47
2021/07/08 06:43:58;;;;;;;10.95;5.15;;;;;;;16.33;74.32;101323.56;5033642;28;20145;-45
2021/07/08 06:46:29;;;;;;;5.65;3.58;;;;;;;16.34;74.50;101330.75;5036480;28;20398;-48
2021/07/08 06:48:57;;;;;;;9.65;5.38;;;;;;;16.41;74.40;101332.88;5020485;28;20057;-49
2021/07/08 06:51:25;;;;;;;8.75;4.72;;;;;;;16.43;74.21;101331.34;5038472;28;20080;-49
2021/07/08 06:53:56;;;;;;;8.45;5.70;;;;;;;16.47;74.24;101331.38;5037774;28;20037;-47
2021/07/08 06:56:23;;;;;;;8.98;4.50;;;;;;;16.54;74.09;101339.13;5038815;28;20055;-53
2021/07/08 06:58:50;;;;;;;10.02;4.88;;;;;;;16.56;73.99;101334.78;5034616;28;20159;-57
2021/07/08 07:01:19;;;;;;;7.05;3.58;;;;;;;16.61;73.98;101330.88;5040437;28;20052;-46
2021/07/08 07:03:45;;;;;;;8.13;4.30;;;;;;;16.68;74.20;101337.41;5034661;28;20078;-50
2021/07/08 07:06:12;;;;;;;8.30;4.38;;;;;;;16.77;73.76;101335.19;5037698;28;20076;-47
2021/07/08 07:08:42;;;;;;;7.65;4.22;;;;;;;16.85;73.72;101330.50;5036985;28;20061;-57
2021/07/08 07:11:10;;;;;;;11.20;5.20;;;;;;;16.92;73.69;101341.81;5039717;28;20164;-47
2021/07/08 07:13:41;;;;;;;9.85;4.57;;;;;;;17.00;73.67;101340.75;5035558;28;20059;-49
2021/07/08 07:16:08;;;;;;;10.35;4.60;;;;;;;17.10;73.00;101342.94;5043181;28;20059;-47
2021/07/08 07:18:39;;;;;;;8.27;4.68;;;;;;;17.18;73.12;101341.88;5034194;28;20163;-47
2021/07/08 07:21:10;;;;;;;4.70;3.03;;;;;;;17.28;72.85;101344.03;5035881;28;20134;-46
2021/07/08 07:23:38;;;;;;;;;;;;;;;17.38;72.33;101343.38;5038895;28;20170;-49
2021/07/08 07:26:06;;;;;;;5.65;3.63;;;;;;;17.45;72.70;101335.06;5040471;28;20457;-54
2021/07/08 07:28:33;;;;;;;7.57;3.67;;;;;;;17.66;72.70;101336.63;5037066;28;20256;-48
2021/07/08 07:31:00;;;;;;;6.78;3.13;;;;;;;17.90;72.07;101347.31;5042131;28;20090;-46
2021/07/08 07:33:27;;;;;;;5.45;3.08;;;;;;;18.05;71.92;101340.72;5039849;28;20524;-54
2021/07/08 07:35:53;;;;;;;6.00;2.83;;;;;;;18.26;71.70;101355.00;5036055;28;20430;-47
2021/07/08 07:38:21;;;;;;;6.32;3.00;;;;;;;18.38;71.39;101340.72;5041782;28;20107;-53
2021/07/08 07:40:48;;;;;;;7.00;3.13;;;;;;;18.47;70.79;101343.22;5019727;28;20136;-53
2021/07/08 07:43:15;;;;;;;4.75;2.53;;;;;;;18.54;70.57;101348.91;5042201;28;20056;-46
2021/07/08 07:45:42;;;;;;;8.77;4.18;;;;;;;18.63;69.74;101352.22;5027117;28;20049;-58
2021/07/08 07:48:10;;;;;;;4.93;2.35;;;;;;;18.71;69.42;101349.13;5020655;28;20434;-51
2021/07/08 07:50:37;;;;;;;3.92;2.70;;;;;;;18.73;68.84;101355.16;5037762;28;22084;-46
2021/07/08 07:53:04;;;;;;;5.20;2.33;;;;;;;18.75;68.28;101349.94;5040794;28;20057;-54
2021/07/08 07:55:32;;;;;;;3.92;1.92;;;;;;;18.72;68.09;101353.53;5040052;28;20036;-53
2021/07/08 07:58:01;;;;;;;4.25;2.53;;;;;;;18.64;67.59;101363.06;5037033;28;20784;-52
2021/07/08 08:00:29;;;;;;;7.13;2.88;;;;;;;18.53;67.73;101352.94;5022726;28;20048;-46
2021/07/08 08:02:57;;;;;;;3.85;2.33;;;;;;;18.45;67.47;101357.63;5023459;28;20080;-47
2021/07/08 08:10:51;;;;;;;3.63;2.47;;;;;;;18.24;67.37;101360.19;5041216;28;20057;-53
2021/07/08 08:13:19;;;;;;;3.55;1.80;;;;;;;18.29;67.15;101365.44;5041124;28;20049;-54
2021/07/08 08:15:47;;;;;;;3.13;2.03;;;;;;;18.27;66.89;101367.03;5038759;28;21278;-55
2021/07/08 08:18:15;;;;;;;5.65;2.25;;;;;;;18.29;67.02;101359.84;5036888;28;20063;-56
2021/07/08 08:20:42;;;;;;;6.80;2.10;;;;;;;18.30;66.83;101364.25;5039174;28;20049;-50
2021/07/08 08:23:09;;;;;;;6.10;2.88;;;;;;;18.28;66.55;101363.84;5041802;28;20072;-48
2021/07/08 08:25:38;;;;;;;2.95;1.92;;;;;;;18.18;66.79;101370.94;5014512;28;20421;-46
2021/07/08 08:28:05;;;;;;;4.68;2.65;;;;;;;18.06;66.96;101367.53;5039793;28;20060;-44
2021/07/08 08:30:32;;;;;;;5.50;2.58;;;;;;;17.96;67.06;101365.41;5039857;28;20045;-51
2021/07/08 08:32:58;;;;;;;7.13;2.92;;;;;;;17.88;67.30;101366.50;5039222;28;20134;-52
2021/07/08 08:35:26;;;;;;;5.18;2.58;;;;;;;17.88;67.37;101367.31;5037196;28;20156;-47
2021/07/08 08:37:53;;;;;;;7.75;3.45;;;;;;;17.90;67.68;101370.53;5036253;28;20056;-54
2021/07/08 08:40:22;;;;;;;5.00;3.33;;;;;;;17.99;68.01;101362.66;5039679;28;20053;-56
2021/07/08 08:42:49;;;;;;;5.95;3.50;;;;;;;18.11;68.02;101370.00;5039513;28;20053;-54
2021/07/08 08:45:18;;;;;;;8.30;2.83;;;;;;;18.23;67.82;101366.97;5040894;28;20068;-52
2021/07/08 08:47:54;;;;;;;5.60;3.72;;;;;;;18.33;67.95;101377.50;5038972;28;20052;-51
2021/07/08 08:50:21;;;;;;;4.80;3.15;;;;;;;18.30;67.80;101386.66;5039475;28;20534;-52
2021/07/08 08:52:50;;;;;;;4.78;3.03;;;;;;;18.29;68.00;101370.25;5041702;28;20054;-49
2021/07/08 08:55:18;;;;;;;5.53;3.38;;;;;;;18.34;67.75;101379.13;5036034;28;20056;-45
2021/07/08 08:57:46;;;;;;;5.40;3.33;;;;;;;18.41;67.58;101390.41;5038427;28;20052;-48
2021/07/08 09:00:26;;;;;;;6.45;3.72;;;;;;;18.45;67.41;101385.66;5038018;28;20103;-48
2021/07/08 09:03:00;;;;;;;5.25;3.17;;;;;;;18.49;66.80;101385.72;5037951;28;20126;-53
2021/07/08 09:05:27;;;;;;;5.13;3.03;;;;;;;18.56;66.62;101392.22;5018525;28;20819;-50
2021/07/08 09:08:15;;;;;;;7.40;3.50;;;;;;;18.81;66.50;101398.91;5036109;28;20055;-55
2021/07/08 09:11:04;;;;;;;4.47;3.28;;;;;;;19.22;66.21;101398.91;5037045;28;20067;-45
2021/07/08 09:13:54;;;;;;;8.48;3.97;;;;;;;19.15;65.74;101396.00;5034056;28;20049;-52
2021/07/08 09:16:39;;;;;;;6.38;3.58;;;;;;;18.86;65.89;101394.94;5033940;28;20049;-49
2021/07/08 09:19:18;;;;;;;5.00;3.08;;;;;;;18.70;66.29;101398.00;5037843;28;20063;-50
2021/07/08 09:21:53;;;;;;;6.13;3.13;;;;;;;18.65;66.31;101395.53;5041160;28;20067;-49
2021/07/08 09:24:21;;;;;;;5.25;3.88;;;;;;;18.57;66.27;101405.06;5034981;28;20063;-50
2021/07/08 09:27:09;;;;;;;8.98;4.38;;;;;;;18.46;66.19;101398.47;5035356;28;20052;-54
2021/07/08 09:29:38;;;;;;;6.80;3.75;;;;;;;18.37;66.52;101398.00;5036756;28;20679;-48
2021/07/08 09:32:14;;;;;;;10.02;4.57;;;;;;;18.34;66.96;101407.16;5039601;28;20049;-47
2021/07/08 09:34:57;;;;;;;5.15;3.78;;;;;;;18.25;66.86;101392.63;5039693;28;20059;-46
2021/07/08 09:37:27;;;;;;;6.70;3.97;;;;;;;18.26;66.73;101397.06;5038382;28;20052;-51
2021/07/08 09:39:56;;;;;;;5.95;3.78;;;;;;;18.21;67.09;101405.78;5033618;28;20130;-46
2021/07/08 09:42:46;;;;;;;6.78;4.28;;;;;;;18.19;66.75;101400.56;5034875;28;20080;-51
2021/07/08 09:45:16;;;;;;;7.88;3.83;;;;;;;18.21;66.41;101403.00;5036537;28;20053;-54
2021/07/08 09:47:45;;;;;;;8.90;4.28;;;;;;;18.15;66.60;101410.13;5035494;28;20149;-46
2021/07/08 09:50:22;;;;;;;8.82;4.45;;;;;;;18.16;67.05;101409.72;5038197;28;20056;-53
2021/07/08 09:53:05;;;;;;;6.88;3.20;;;;;;;18.20;66.79;101415.38;5041679;28;20111;-47
2021/07/08 09:58:31;;;;;;;6.55;3.65;;;;;;;18.32;67.06;101417.94;5028566;28;20053;-52
2021/07/08 10:01:19;;;;;;;6.28;3.10;;;;;;;18.38;66.17;101408.00;5036865;28;20400;-52
2021/07/08 10:03:48;;;;;;;6.97;3.13;;;;;;;18.50;66.39;101421.81;5036469;28;20391;-54
2021/07/08 10:06:16;;;;;;;5.45;3.70;;;;;;;18.65;66.02;101409.56;5035376;28;20135;-51
2021/07/08 10:08:44;;;;;;;5.18;3.17;;;;;;;18.82;66.02;101414.53;5039117;28;20523;-46
2021/07/08 10:11:16;;;;;;;6.13;2.90;;;;;;;18.93;65.85;101411.06;5031192;28;20457;-52
2021/07/08 10:13:46;;;;;;;5.18;2.92;;;;;;;19.03;65.38;101410.34;5037061;28;20843;-46
2021/07/08 10:16:15;;;;;;;4.85;3.33;;;;;;;19.16;65.10;101426.53;5035212;28;20048;-43
2021/07/08 10:18:44;;;;;;;5.53;2.28;;;;;;;19.21;64.72;101416.94;5039649;28;20048;-45
2021/07/08 10:21:12;;;;;;;3.53;2.83;;;;;;;19.26;64.66;101417.38;5037802;28;20143;-45
2021/07/08 10:23:41;;;;;;;4.65;2.60;;;;;;;19.33;64.64;101423.03;5037020;28;20057;-46
2021/07/08 10:26:09;;;;;;;3.88;2.80;;;;;;;19.49;64.41;101416.38;5038087;28;20072;-56
2021/07/08 10:28:43;;;;;;;2.95;2.38;;;;;;;19.64;63.74;101420.91;5034545;28;20493;-46
2021/07/08 10:31:17;;;;;;;3.28;2.20;;;;;;;19.75;63.43;101419.00;5017404;28;20069;-46
2021/07/08 10:34:08;;;;;;;1.40;1.30;;;;;;;19.82;61.74;101414.22;5039806;28;20040;-52
2021/07/08 10:36:36;;;;;;;4.97;2.35;;;;;;;19.93;62.51;101417.91;5033858;28;20505;-53
2021/07/08 10:39:13;;;;;;;5.63;2.33;;;;;;;20.04;61.96;101415.16;5034840;28;20068;-43
2021/07/08 10:41:44;;;;;;;2.97;2.40;;;;;;;20.18;62.06;101425.66;5015516;28;20423;-43
2021/07/08 10:44:33;;;;;;;3.53;2.40;;;;;;;20.42;61.31;101425.00;5036836;28;20049;-46
2021/07/08 10:47:02;;;;;;;4.72;1.95;;;;;;;20.59;61.28;101421.44;5035720;28;20397;-45
2021/07/08 10:49:41;;;;;;;2.63;1.65;;;;;;;20.67;59.54;101413.84;5040184;28;20056;-51
2021/07/08 10:52:40;;;;;;;2.22;1.70;;;;;;;20.69;59.82;101423.50;5036683;28;20052;-46
2021/07/08 10:55:09;;;;;;;2.60;1.58;;;;;;;20.60;60.28;101418.22;5037588;28;20878;-50
2021/07/08 10:57:39;;;;;;;7.80;1.80;;;;;;;20.48;60.30;101418.59;5038323;28;20497;-48
2021/07/08 11:00:10;;;;;;;1.80;1.60;;;;;;;20.42;60.35;101423.00;5037608;28;20312;-48
2021/07/08 11:02:49;;;;;;;;;;;;;;;20.52;59.89;101418.59;5040682;28;20063;-51
2021/07/08 11:05:54;;;;;;;2.25;1.80;;;;;;;20.69;59.39;101420.69;5039908;28;19924;-45
2021/07/08 11:09:02;;;;;;;1.98;1.40;;;;;;;20.88;59.43;101413.88;5038244;28;20060;-54
2021/07/08 11:11:29;;;;;;;2.05;1.48;;;;;;;21.02;59.52;101425.97;5029473;28;20182;-47
2021/07/08 11:13:57;;;;;;;3.10;1.25;;;;;;;21.30;59.16;101418.78;5042203;28;20145;-45
2021/07/08 11:16:44;;;;;;;2.22;1.50;;;;;;;21.53;57.77;101419.19;5043230;28;20518;-50
2021/07/08 11:19:12;;;;;;;2.20;1.30;;;;;;;21.61;57.99;101423.59;5040993;28;20048;-53
2021/07/08 11:22:02;;;;;;;1.67;1.33;;;;;;;21.63;56.42;101421.97;5036921;28;20076;-50
2021/07/08 11:24:41;;;;;;;3.50;1.55;;;;;;;21.70;57.26;101432.47;5040053;28;20053;-48
2021/07/08 11:27:10;;;;;;;1.67;1.38;;;;;;;21.81;56.73;101421.97;5041047;28;20752;-54
2021/07/08 11:29:49;;;;;;;1.77;1.00;;;;;;;22.10;56.64;101419.94;5038866;28;20147;-52
2021/07/08 11:32:35;;;;;;;1.30;1.20;;;;;;;22.28;55.94;101426.31;5040046;28;20159;-54
2021/07/08 11:35:06;;;;;;;1.30;1.10;;;;;;;22.36;55.51;101425.06;5039320;28;20057;-48
2021/07/08 11:37:40;;;;;;;2.08;1.15;;;;;;;22.33;55.04;101428.69;5041491;28;20122;-51
2021/07/08 11:40:13;;;;;;;1.50;1.00;;;;;;;22.35;54.45;101423.44;5038310;28;20055;-54
2021/07/08 11:42:42;;;;;;;1.05;0.75;;;;;;;22.46;54.25;101429.84;5037313;28;20788;-55
2021/07/08 11:45:12;;;;;;;0.80;0.80;;;;;;;22.43;53.63;101433.50;5040816;28;20063;-52